createdAt,value
2023-03-21T00:01:51.709Z,55.75
2023-03-21T00:04:20.072Z,55.73
2023-03-21T00:06:49.455Z,55.85
2023-03-21T00:09:20.887Z,55.75
2023-03-21T00:11:49.525Z,55.71
2023-03-21T00:14:18.928Z,56.00
2023-03-21T00:16:50.635Z,56.02
2023-03-21T00:19:20.853Z,55.74
2023-03-21T00:22:08.751Z,55.55
2023-03-21T00:24:37.883Z,55.54
2023-03-21T00:29:56.512Z,55.99
2023-03-21T00:32:25.885Z,55.71
2023-03-21T00:35:11.943Z,55.60
2023-03-21T00:37:44.190Z,55.54
2023-03-21T00:40:25.319Z,55.60
2023-03-21T00:42:54.751Z,55.50
2023-03-21T00:45:22.996Z,55.39
2023-03-21T00:47:51.288Z,55.41
2023-03-21T00:50:20.132Z,55.58
2023-03-21T00:52:50.534Z,55.72
2023-03-21T00:55:21.164Z,55.79
2023-03-21T00:57:56.201Z,55.71
2023-03-21T01:00:29.534Z,55.68
2023-03-21T01:03:04.379Z,55.80
2023-03-21T01:05:58.358Z,55.81
2023-03-21T01:08:33.201Z,55.96
2023-03-21T01:11:13.508Z,55.99
2023-03-21T01:13:52.820Z,56.16
2023-03-21T01:16:25.416Z,56.39
2023-03-21T01:18:54.177Z,56.21
2023-03-21T01:21:22.281Z,56.19
2023-03-21T01:23:51.666Z,56.07
2023-03-21T01:26:19.930Z,56.15
2023-03-21T01:28:48.129Z,56.03
2023-03-21T01:31:17.976Z,56.13
2023-03-21T01:33:46.683Z,56.15
2023-03-21T01:36:21.828Z,56.75
2023-03-21T01:38:53.249Z,56.70
2023-03-21T01:41:36.767Z,56.64
2023-03-21T01:44:19.524Z,56.76
2023-03-21T01:47:03.558Z,56.83
2023-03-21T01:49:41.738Z,56.93
2023-03-21T01:52:21.106Z,57.19
2023-03-21T01:54:58.360Z,57.43
2023-03-21T01:57:40.383Z,57.43
2023-03-21T02:00:13.580Z,57.68
2023-03-21T02:02:52.587Z,57.74
2023-03-21T02:05:28.816Z,57.58
2023-03-21T02:07:57.031Z,57.59
2023-03-21T02:10:28.180Z,57.87
2023-03-21T02:13:08.096Z,57.85
2023-03-21T02:15:39.035Z,57.96
2023-03-21T02:18:15.435Z,58.04
2023-03-21T02:21:05.623Z,58.21
2023-03-21T02:24:03.181Z,58.49
2023-03-21T02:27:05.044Z,58.24
2023-03-21T02:30:02.426Z,58.20
2023-03-21T02:32:42.017Z,58.05
2023-03-21T02:35:29.579Z,57.91
2023-03-21T02:38:02.584Z,58.18
2023-03-21T02:40:36.118Z,57.81
2023-03-21T02:43:22.163Z,57.69
2023-03-21T02:45:55.030Z,57.77
2023-03-21T02:48:35.268Z,57.82
2023-03-21T02:51:10.461Z,57.78
2023-03-21T02:53:43.555Z,57.80
2023-03-21T02:56:12.037Z,57.90
2023-03-21T02:58:42.681Z,57.97
2023-03-21T03:01:11.567Z,58.39
2023-03-21T03:03:40.002Z,58.59
2023-03-21T03:06:17.094Z,58.57
2023-03-21T03:09:03.243Z,58.48
2023-03-21T03:11:35.740Z,58.34
2023-03-21T03:14:49.924Z,58.22
2023-03-21T03:17:24.594Z,57.82
2023-03-21T03:20:16.629Z,58.28
2023-03-21T03:22:55.905Z,58.73
2023-03-21T03:25:42.217Z,58.56
2023-03-21T03:28:14.937Z,58.57
2023-03-21T03:30:54.257Z,58.17
2023-03-21T03:33:30.939Z,58.26
2023-03-21T03:36:06.444Z,58.15
2023-03-21T03:38:37.948Z,58.14
2023-03-21T03:41:11.759Z,58.07
2023-03-21T03:43:48.560Z,58.08
2023-03-21T03:46:21.098Z,57.92
2023-03-21T03:48:52.310Z,57.85
2023-03-21T03:51:25.486Z,57.99
2023-03-21T03:53:58.276Z,57.77
2023-03-21T03:56:29.717Z,57.78
2023-03-21T03:58:58.678Z,57.73
2023-03-21T04:01:27.846Z,57.65
2023-03-21T04:04:10.586Z,57.56
2023-03-21T04:06:41.461Z,57.64
2023-03-21T04:09:20.686Z,58.57
2023-03-21T04:11:51.502Z,58.69
2023-03-21T04:14:19.780Z,58.42
2023-03-21T04:16:47.797Z,58.80
2023-03-21T04:19:16.616Z,58.69
2023-03-21T04:21:44.828Z,58.37
2023-03-21T04:24:13.934Z,58.18
2023-03-21T04:26:43.077Z,58.30
2023-03-21T04:29:14.524Z,58.30
2023-03-21T04:31:43.716Z,58.78
2023-03-21T04:34:14.402Z,59.01
2023-03-21T04:36:45.751Z,58.82
2023-03-21T04:39:14.442Z,58.40
2023-03-21T04:41:43.647Z,58.22
2023-03-21T04:44:13.579Z,58.16
2023-03-21T04:46:43.609Z,58.18
2023-03-21T04:49:11.838Z,58.17
2023-03-21T04:51:40.482Z,58.21
2023-03-21T04:54:12.292Z,58.35
2023-03-21T04:56:41.075Z,58.59
2023-03-21T04:59:13.034Z,58.31
2023-03-21T05:01:43.735Z,58.28
2023-03-21T05:04:15.755Z,58.04
2023-03-21T05:06:44.891Z,58.35
2023-03-21T05:09:14.565Z,58.48
2023-03-21T05:11:43.175Z,58.85
2023-03-21T05:14:14.819Z,58.83
2023-03-21T05:16:48.515Z,58.64
2023-03-21T05:19:18.594Z,58.75
2023-03-21T05:21:47.496Z,58.74
2023-03-21T05:24:19.356Z,58.80
2023-03-21T05:26:52.260Z,58.76
2023-03-21T05:29:21.722Z,58.87
2023-03-21T05:31:51.620Z,58.79
2023-03-21T05:34:21.689Z,58.90
2023-03-21T05:36:49.906Z,59.01
2023-03-21T05:39:18.363Z,59.00
2023-03-21T05:41:46.484Z,58.70
2023-03-21T05:44:15.545Z,58.70
2023-03-21T05:46:44.072Z,58.33
2023-03-21T05:49:12.919Z,58.32
2023-03-21T05:51:44.968Z,58.48
2023-03-21T05:54:16.651Z,58.47
2023-03-21T05:56:45.307Z,58.46
2023-03-21T05:59:13.823Z,58.36
2023-03-21T06:01:42.133Z,58.24
2023-03-21T06:04:11.677Z,58.14
2023-03-21T06:06:41.871Z,58.07
2023-03-21T06:09:11.340Z,57.93
2023-03-21T06:11:47.499Z,57.89
2023-03-21T06:14:16.850Z,58.07
2023-03-21T06:16:45.591Z,57.86
2023-03-21T06:19:14.285Z,57.78
2023-03-21T06:21:43.577Z,57.79
2023-03-21T06:24:14.506Z,57.62
2023-03-21T06:26:43.430Z,57.93
2023-03-21T06:29:11.803Z,57.89
2023-03-21T06:31:42.860Z,57.99
2023-03-21T06:34:11.692Z,58.05
2023-03-21T06:36:39.964Z,57.89
2023-03-21T06:39:08.776Z,57.73
2023-03-21T06:41:39.907Z,57.84
2023-03-21T06:44:08.705Z,57.65
2023-03-21T06:46:37.343Z,57.70
2023-03-21T06:49:05.597Z,57.65
2023-03-21T06:51:34.089Z,57.53
2023-03-21T06:54:02.703Z,57.46
2023-03-21T06:56:30.769Z,57.22
2023-03-21T06:59:00.586Z,57.43
2023-03-21T07:01:30.604Z,57.48
2023-03-21T07:03:59.914Z,57.24
2023-03-21T07:06:28.732Z,57.25
2023-03-21T07:08:57.322Z,57.01
2023-03-21T07:11:26.220Z,57.43
2023-03-21T07:13:54.498Z,57.26
2023-03-21T07:16:26.181Z,57.18
2023-03-21T07:18:54.569Z,57.08
2023-03-21T07:21:22.657Z,57.08
2023-03-21T07:23:51.244Z,56.85
2023-03-21T07:26:19.641Z,56.82
2023-03-21T07:28:47.626Z,56.86
2023-03-21T07:31:17.740Z,56.64
2023-03-21T07:33:47.276Z,56.44
2023-03-21T07:36:16.916Z,56.51
2023-03-21T07:38:47.008Z,56.62
2023-03-21T07:43:44.750Z,56.50
2023-03-21T07:46:13.001Z,56.33
2023-03-21T07:48:41.006Z,56.16
2023-03-21T07:51:10.410Z,56.24
2023-03-21T07:53:39.246Z,55.95
2023-03-21T07:56:07.596Z,55.96
2023-03-21T07:58:35.706Z,55.81
2023-03-21T08:01:03.876Z,55.58
2023-03-21T08:03:33.402Z,55.64
2023-03-21T08:06:01.990Z,54.96
2023-03-21T08:08:31.701Z,55.28
2023-03-21T08:11:00.104Z,55.29
2023-03-21T08:13:28.141Z,55.25
2023-03-21T08:15:56.143Z,54.77
2023-03-21T08:18:24.331Z,55.07
2023-03-21T08:20:54.014Z,55.11
2023-03-21T08:23:22.466Z,54.97
2023-03-21T08:25:54.634Z,54.54
2023-03-21T08:28:24.275Z,54.50
2023-03-21T08:30:52.558Z,55.14
2023-03-21T08:33:21.464Z,54.82
2023-03-21T08:35:49.504Z,54.81
2023-03-21T08:38:17.930Z,54.86
2023-03-21T08:40:45.831Z,54.26
2023-03-21T08:43:15.314Z,54.41
2023-03-21T08:45:43.615Z,54.41
2023-03-21T08:48:11.602Z,54.58
2023-03-21T08:50:40.197Z,54.73
2023-03-21T08:53:08.775Z,54.07
2023-03-21T08:55:37.060Z,54.34
2023-03-21T08:58:05.104Z,54.41
2023-03-21T09:00:34.683Z,54.30
2023-03-21T09:03:04.983Z,53.95
2023-03-21T09:05:33.742Z,53.67
2023-03-21T09:08:03.346Z,53.77
2023-03-21T09:10:31.582Z,53.76
2023-03-21T09:12:59.905Z,53.47
2023-03-21T09:15:28.967Z,53.38
2023-03-21T09:18:13.203Z,53.47
2023-03-21T09:20:43.065Z,53.52
2023-03-21T09:23:12.143Z,52.98
2023-03-21T09:25:40.797Z,52.87
2023-03-21T09:28:09.781Z,53.20
2023-03-21T09:30:38.216Z,52.81
2023-03-21T09:33:09.777Z,52.96
2023-03-21T09:35:39.096Z,52.69
2023-03-21T09:38:07.390Z,52.63
2023-03-21T09:40:50.163Z,52.05
2023-03-21T09:43:33.101Z,49.91
2023-03-21T09:46:07.234Z,50.63
2023-03-21T09:48:54.329Z,51.60
2023-03-21T09:51:27.204Z,50.87
2023-03-21T09:53:58.562Z,50.29
2023-03-21T09:56:26.993Z,51.51
2023-03-21T09:58:59.369Z,51.25
2023-03-21T10:01:29.883Z,51.45
2023-03-21T10:04:03.385Z,51.15
2023-03-21T10:06:33.638Z,51.16
2023-03-21T10:09:06.585Z,51.48
2023-03-21T10:11:43.321Z,48.81
2023-03-21T10:14:19.567Z,49.59
2023-03-21T10:16:50.455Z,49.03
2023-03-21T10:19:21.578Z,50.07
2023-03-21T10:22:00.627Z,50.33
2023-03-21T10:24:32.611Z,50.13
2023-03-21T10:27:02.444Z,50.63
2023-03-21T10:29:37.035Z,50.22
2023-03-21T10:32:05.355Z,48.96
2023-03-21T10:34:39.371Z,50.03
2023-03-21T10:37:08.045Z,48.67
2023-03-21T10:39:39.422Z,50.13
2023-03-21T10:42:08.408Z,48.57
2023-03-21T10:44:37.345Z,49.29
2023-03-21T10:47:07.634Z,49.70
2023-03-21T10:50:05.121Z,49.25
2023-03-21T10:52:29.800Z,48.53
2023-03-21T10:55:09.865Z,47.92
2023-03-21T10:57:38.782Z,46.35
2023-03-21T11:00:20.787Z,49.21
2023-03-21T11:02:51.208Z,48.39
2023-03-21T11:05:25.473Z,48.53
2023-03-21T11:08:00.078Z,46.56
2023-03-21T11:10:31.164Z,46.42
2023-03-21T11:13:04.645Z,48.89
2023-03-21T11:15:34.773Z,46.85
2023-03-21T11:18:15.533Z,48.77
2023-03-21T11:20:50.312Z,46.21
2023-03-21T11:23:20.804Z,45.30
2023-03-21T11:25:51.302Z,47.25
2023-03-21T11:28:24.292Z,47.57
2023-03-21T11:30:54.780Z,46.85
2023-03-21T11:33:28.199Z,48.41
2023-03-21T11:36:02.822Z,47.24
2023-03-21T11:38:37.694Z,45.17
2023-03-21T11:41:07.294Z,46.03
2023-03-21T11:43:37.541Z,45.22
2023-03-21T11:46:09.812Z,47.64
2023-03-21T11:48:42.252Z,46.06
2023-03-21T11:51:22.148Z,46.82
2023-03-21T11:53:57.189Z,45.74
2023-03-21T11:56:28.957Z,45.68
2023-03-21T11:59:08.710Z,45.13
2023-03-21T12:01:46.528Z,45.51
2023-03-21T12:04:22.422Z,45.90
2023-03-21T12:07:01.509Z,45.59
2023-03-21T12:09:42.086Z,46.86
2023-03-21T12:12:38.275Z,44.66
2023-03-21T12:15:16.035Z,44.48
2023-03-21T12:17:56.117Z,46.22
2023-03-21T12:20:38.709Z,44.81
2023-03-21T12:23:42.238Z,42.08
2023-03-21T12:26:21.062Z,41.45
2023-03-21T12:29:05.251Z,44.02
2023-03-21T12:31:43.793Z,44.97
2023-03-21T12:34:26.011Z,45.95
2023-03-21T12:37:09.087Z,44.23
2023-03-21T12:39:40.809Z,42.97
2023-03-21T12:42:36.020Z,46.10
2023-03-21T12:45:15.385Z,43.10
2023-03-21T12:47:49.742Z,45.68
2023-03-21T12:50:24.205Z,46.64
2023-03-21T12:52:57.190Z,45.65
2023-03-21T12:55:29.260Z,46.24
2023-03-21T12:58:04.926Z,46.17
2023-03-21T13:00:39.305Z,44.50
2023-03-21T13:03:14.910Z,45.68
2023-03-21T13:05:47.615Z,45.34
2023-03-21T13:08:22.161Z,46.15
2023-03-21T13:10:51.542Z,45.50
2023-03-21T13:13:27.229Z,46.14
2023-03-21T13:16:03.828Z,46.57
2023-03-21T13:18:40.775Z,45.13
2023-03-21T13:21:16.625Z,45.63
2023-03-21T13:24:00.461Z,44.27
2023-03-21T13:26:39.540Z,44.16
2023-03-21T13:29:16.069Z,43.65
2023-03-21T13:31:52.537Z,43.98
2023-03-21T13:34:23.408Z,43.86
2023-03-21T13:36:53.483Z,46.23
2023-03-21T13:39:27.366Z,43.77
2023-03-21T13:41:56.756Z,43.57
2023-03-21T13:44:33.115Z,44.36
2023-03-21T13:47:03.542Z,44.44
2023-03-21T13:49:35.441Z,44.84
2023-03-21T13:52:22.334Z,44.65
2023-03-21T13:54:53.831Z,44.22
2023-03-21T13:57:38.348Z,44.05
2023-03-21T14:00:20.873Z,41.93
2023-03-21T14:02:58.335Z,42.32
2023-03-21T14:05:28.677Z,43.52
2023-03-21T14:08:12.564Z,45.35
2023-03-21T14:10:45.779Z,44.79
2023-03-21T14:13:20.085Z,43.44
2023-03-21T14:15:55.993Z,43.34
2023-03-21T14:18:47.836Z,44.30
2023-03-21T14:21:23.717Z,45.19
2023-03-21T14:24:00.873Z,44.84
2023-03-21T14:26:31.515Z,44.31
2023-03-21T14:29:05.217Z,44.75
2023-03-21T14:31:33.989Z,43.71
2023-03-21T14:34:03.426Z,44.26
2023-03-21T14:36:35.235Z,44.49
2023-03-21T14:39:07.382Z,44.84
2023-03-21T14:41:45.487Z,44.47
2023-03-21T14:44:22.385Z,41.61
2023-03-21T14:46:50.495Z,44.22
2023-03-21T14:49:23.356Z,43.64
2023-03-21T14:51:52.969Z,43.95
2023-03-21T14:54:21.525Z,44.67
2023-03-21T14:56:52.595Z,44.82
2023-03-21T14:59:26.723Z,44.47
2023-03-21T15:01:55.594Z,44.47
2023-03-21T15:04:23.703Z,44.62
2023-03-21T15:06:54.089Z,44.43
2023-03-21T15:09:27.098Z,44.61
2023-03-21T15:11:56.450Z,44.42
2023-03-21T15:14:30.164Z,44.68
2023-03-21T15:16:59.963Z,43.37
2023-03-21T15:19:32.455Z,43.72
2023-03-21T15:22:07.244Z,44.75
2023-03-21T15:24:39.536Z,44.57
2023-03-21T15:27:09.356Z,44.78
2023-03-21T15:29:39.603Z,44.89
2023-03-21T15:32:23.876Z,45.02
2023-03-21T15:34:56.626Z,44.64
2023-03-21T15:37:37.117Z,44.78
2023-03-21T15:40:19.407Z,43.85
2023-03-21T15:42:52.621Z,45.05
2023-03-21T15:45:25.698Z,45.38
2023-03-21T15:47:59.890Z,45.32
2023-03-21T15:50:38.606Z,45.42
2023-03-21T15:53:13.184Z,44.65
2023-03-21T15:55:48.144Z,45.64
2023-03-21T15:58:19.186Z,45.54
2023-03-21T16:00:55.444Z,45.49
2023-03-21T16:03:27.252Z,44.52
2023-03-21T16:06:19.247Z,45.36
2023-03-21T16:08:50.134Z,44.84
2023-03-21T16:11:28.372Z,45.82
2023-03-21T16:13:57.824Z,45.79
2023-03-21T16:16:30.367Z,45.79
2023-03-21T16:19:00.876Z,45.90
2023-03-21T16:21:31.810Z,46.03
2023-03-21T16:24:00.778Z,46.09
2023-03-21T16:26:31.679Z,46.18
2023-03-21T16:29:01.469Z,46.23
2023-03-21T16:31:33.275Z,45.90
2023-03-21T16:34:04.004Z,46.23
2023-03-21T16:36:36.575Z,46.39
2023-03-21T16:39:16.848Z,46.48
2023-03-21T16:41:47.784Z,46.30
2023-03-21T16:44:19.286Z,46.63
2023-03-21T16:46:52.858Z,46.58
2023-03-21T16:49:24.878Z,46.89
2023-03-21T16:52:05.367Z,46.86
2023-03-21T16:54:39.227Z,46.97
2023-03-21T16:57:09.825Z,47.13
2023-03-21T16:59:48.733Z,47.35
2023-03-21T17:02:24.766Z,47.47
2023-03-21T17:04:56.745Z,47.46
2023-03-21T17:07:29.926Z,47.73
2023-03-21T17:10:03.810Z,47.97
2023-03-21T17:12:32.756Z,48.23
2023-03-21T17:15:02.832Z,48.67
2023-03-21T17:17:34.373Z,48.92
2023-03-21T17:20:17.938Z,49.02
2023-03-21T17:22:46.906Z,50.89
2023-03-21T17:25:21.925Z,49.95
2023-03-21T17:27:53.093Z,50.29
2023-03-21T17:30:24.974Z,50.73
2023-03-21T17:32:55.812Z,51.38
2023-03-21T17:35:25.160Z,52.15
2023-03-21T17:37:54.144Z,51.23
2023-03-21T17:40:27.183Z,51.48
2023-03-21T17:42:57.005Z,53.06
2023-03-21T17:48:58.153Z,53.13
2023-03-21T17:51:34.631Z,54.85
2023-03-21T17:54:06.066Z,54.45
2023-03-21T18:00:46.484Z,53.86
2023-03-21T18:03:16.309Z,53.84
2023-03-21T18:05:49.961Z,52.64
2023-03-21T18:08:31.919Z,53.22
2023-03-21T18:11:00.479Z,54.20
2023-03-21T18:13:41.924Z,53.00
2023-03-21T18:17:10.514Z,53.21
2023-03-21T18:19:40.822Z,53.24
2023-03-21T18:22:09.087Z,53.25
2023-03-21T18:24:38.416Z,53.23
2023-03-21T18:27:07.264Z,53.02
2023-03-21T18:32:27.566Z,54.05
2023-03-21T18:34:56.843Z,54.72
2023-03-21T18:37:25.479Z,54.40
2023-03-21T18:40:07.803Z,54.56
2023-03-21T18:42:37.019Z,56.78
2023-03-21T18:45:07.696Z,54.67
2023-03-21T18:47:40.902Z,54.78
2023-03-21T18:50:14.990Z,55.68
2023-03-21T18:52:46.521Z,55.06
2023-03-21T18:55:30.740Z,55.31
2023-03-21T18:58:09.083Z,56.97
2023-03-21T19:00:41.061Z,57.22
2023-03-21T19:03:21.601Z,58.33
2023-03-21T19:06:07.087Z,57.55
2023-03-21T19:08:59.388Z,59.13
2023-03-21T19:11:32.070Z,58.08
2023-03-21T19:14:00.240Z,57.16
2023-03-21T19:16:32.660Z,57.35
2023-03-21T19:19:08.909Z,57.63
2023-03-21T19:21:37.945Z,56.94
2023-03-21T19:24:26.890Z,57.91
2023-03-21T19:27:20.182Z,57.04
2023-03-21T19:30:06.578Z,57.33
2023-03-21T19:32:40.711Z,56.84
2023-03-21T19:35:10.723Z,58.10
2023-03-21T19:37:38.954Z,58.23
2023-03-21T19:40:10.190Z,58.47
2023-03-21T19:42:42.491Z,59.03
2023-03-21T19:45:15.165Z,57.54
2023-03-21T19:47:50.851Z,57.96
2023-03-21T19:53:14.708Z,57.63
2023-03-21T19:56:20.743Z,58.20
2023-03-21T19:59:12.458Z,58.51
2023-03-21T20:02:25.028Z,57.98
2023-03-21T20:05:14.528Z,58.14
2023-03-21T20:08:09.567Z,57.79
2023-03-21T20:10:50.315Z,57.96
2023-03-21T20:13:18.827Z,58.22
2023-03-21T20:15:55.396Z,58.01
2023-03-21T20:18:38.263Z,58.46
2023-03-21T20:21:16.973Z,58.09
2023-03-21T20:24:05.188Z,58.71
2023-03-21T20:26:34.226Z,62.24
2023-03-21T20:37:17.500Z,61.57
2023-03-21T20:39:50.168Z,61.29
2023-03-21T20:45:47.637Z,58.70
2023-03-21T20:48:37.538Z,59.54
2023-03-21T20:54:34.892Z,60.12
2023-03-21T20:57:04.738Z,58.97
2023-03-21T20:59:33.603Z,58.66
2023-03-21T21:02:01.873Z,58.60
2023-03-21T21:04:52.816Z,58.60
2023-03-21T21:07:31.047Z,59.49
2023-03-21T21:14:39.532Z,60.60
2023-03-21T21:17:24.544Z,61.91
2023-03-21T21:19:56.477Z,59.10
2023-03-21T21:22:24.940Z,59.14
2023-03-21T21:25:03.888Z,58.98
2023-03-21T21:27:32.370Z,60.62
2023-03-21T21:30:18.776Z,58.83
2023-03-21T21:32:47.307Z,60.04
2023-03-21T21:35:48.632Z,58.63
2023-03-21T21:38:22.121Z,59.98
2023-03-21T21:40:52.159Z,59.10
2023-03-21T21:43:21.252Z,59.54
2023-03-21T21:49:14.134Z,60.28
2023-03-21T21:51:42.586Z,59.96
2023-03-21T21:54:18.064Z,59.03
2023-03-21T22:07:54.839Z,59.69
2023-03-21T22:10:25.446Z,59.37
2023-03-21T22:12:53.501Z,59.03
2023-03-21T22:15:23.841Z,59.02
2023-03-21T22:17:52.801Z,59.36
2023-03-21T22:20:22.377Z,59.73
2023-03-21T22:22:52.199Z,59.62
2023-03-21T22:25:20.567Z,59.42
2023-03-21T22:27:48.567Z,59.78
2023-03-21T22:30:18.648Z,60.05
2023-03-21T22:33:02.597Z,59.83
2023-03-21T22:35:34.553Z,59.87
2023-03-21T22:38:04.283Z,59.91
2023-03-21T22:40:32.467Z,60.17
2023-03-21T22:43:00.709Z,60.01
2023-03-21T22:45:29.222Z,59.64
2023-03-21T22:47:59.846Z,59.52
2023-03-21T22:50:29.064Z,59.46
2023-03-21T22:52:57.140Z,59.34
2023-03-21T22:55:26.527Z,59.42
2023-03-21T22:57:54.945Z,60.67
2023-03-21T23:00:22.964Z,59.74
2023-03-21T23:02:51.049Z,59.80
2023-03-21T23:05:19.659Z,59.79
2023-03-21T23:07:47.717Z,59.32
2023-03-21T23:10:16.105Z,59.73
2023-03-21T23:12:46.147Z,59.56
2023-03-21T23:15:14.307Z,59.37
2023-03-21T23:17:44.230Z,59.80
2023-03-21T23:20:12.937Z,59.81
2023-03-21T23:22:41.545Z,59.51
2023-03-21T23:25:09.913Z,59.77
2023-03-21T23:27:38.436Z,59.40
2023-03-21T23:30:09.298Z,59.15
2023-03-21T23:32:38.212Z,59.23
2023-03-21T23:35:07.437Z,59.58
2023-03-21T23:37:36.112Z,59.66
2023-03-21T23:40:07.300Z,59.29
2023-03-21T23:42:36.206Z,59.73
2023-03-21T23:45:05.175Z,59.57
2023-03-21T23:47:34.567Z,59.70
2023-03-21T23:50:06.878Z,59.93
2023-03-21T23:52:35.549Z,59.93
2023-03-21T23:55:03.754Z,60.40
2023-03-21T23:57:31.906Z,60.23
